sensor_id;sensor_type;location;lat;lon;timestamp;temperature;humidity
2212;DHT22;48849;48.758;9.158;2023-05-31T00:01:06;20.10;96.80
2212;DHT22;48849;48.758;9.158;2023-05-31T00:03:32;20.10;96.80
2212;DHT22;48849;48.758;9.158;2023-05-31T00:06:00;20.10;96.60
2212;DHT22;48849;48.758;9.158;2023-05-31T00:08:31;20.10;96.80
2212;DHT22;48849;48.758;9.158;2023-05-31T00:10:58;20.00;96.80
2212;DHT22;48849;48.758;9.158;2023-05-31T00:13:25;20.10;96.90
2212;DHT22;48849;48.758;9.158;2023-05-31T00:15:54;20.00;96.90
2212;DHT22;48849;48.758;9.158;2023-05-31T00:18:21;20.00;96.80
2212;DHT22;48849;48.758;9.158;2023-05-31T00:20:47;20.10;96.70
2212;DHT22;48849;48.758;9.158;2023-05-31T00:23:14;19.90;96.30
2212;DHT22;48849;48.758;9.158;2023-05-31T00:25:41;19.90;96.10
2212;DHT22;48849;48.758;9.158;2023-05-31T00:28:08;20.00;96.10
2212;DHT22;48849;48.758;9.158;2023-05-31T00:30:35;19.90;95.90
2212;DHT22;48849;48.758;9.158;2023-05-31T00:33:04;19.90;96.10
2212;DHT22;48849;48.758;9.158;2023-05-31T00:35:32;20.00;96.10
2212;DHT22;48849;48.758;9.158;2023-05-31T00:38:05;19.80;96.20
2212;DHT22;48849;48.758;9.158;2023-05-31T00:40:33;19.90;96.00
2212;DHT22;48849;48.758;9.158;2023-05-31T00:43:11;19.90;96.00
2212;DHT22;48849;48.758;9.158;2023-05-31T00:45:38;19.90;95.90
2212;DHT22;48849;48.758;9.158;2023-05-31T00:48:06;19.90;95.80
2212;DHT22;48849;48.758;9.158;2023-05-31T00:50:34;19.90;95.80
2212;DHT22;48849;48.758;9.158;2023-05-31T00:53:03;19.90;95.80
2212;DHT22;48849;48.758;9.158;2023-05-31T00:55:32;19.80;95.60
2212;DHT22;48849;48.758;9.158;2023-05-31T00:57:59;19.80;95.80
2212;DHT22;48849;48.758;9.158;2023-05-31T01:00:27;19.80;95.80
2212;DHT22;48849;48.758;9.158;2023-05-31T01:02:54;19.80;95.80
2212;DHT22;48849;48.758;9.158;2023-05-31T01:05:23;19.80;95.40
2212;DHT22;48849;48.758;9.158;2023-05-31T01:07:51;19.80;95.60
2212;DHT22;48849;48.758;9.158;2023-05-31T01:10:19;19.80;95.40
2212;DHT22;48849;48.758;9.158;2023-05-31T01:12:59;19.80;95.40
2212;DHT22;48849;48.758;9.158;2023-05-31T01:15:32;19.70;95.60
2212;DHT22;48849;48.758;9.158;2023-05-31T01:18:06;19.70;95.50
2212;DHT22;48849;48.758;9.158;2023-05-31T01:20:38;19.70;95.80
2212;DHT22;48849;48.758;9.158;2023-05-31T01:23:14;19.60;95.80
2212;DHT22;48849;48.758;9.158;2023-05-31T01:26:05;19.60;95.70
2212;DHT22;48849;48.758;9.158;2023-05-31T01:28:47;19.60;95.80
2212;DHT22;48849;48.758;9.158;2023-05-31T01:31:18;19.60;95.80
2212;DHT22;48849;48.758;9.158;2023-05-31T01:33:47;19.50;95.90
2212;DHT22;48849;48.758;9.158;2023-05-31T01:36:15;19.50;95.80
2212;DHT22;48849;48.758;9.158;2023-05-31T01:38:42;19.50;95.80
2212;DHT22;48849;48.758;9.158;2023-05-31T01:41:11;19.50;95.80
2212;DHT22;48849;48.758;9.158;2023-05-31T01:43:41;19.40;95.90
2212;DHT22;48849;48.758;9.158;2023-05-31T01:46:13;19.40;96.40
2212;DHT22;48849;48.758;9.158;2023-05-31T01:48:41;19.40;96.60
2212;DHT22;48849;48.758;9.158;2023-05-31T01:51:11;19.40;96.90
2212;DHT22;48849;48.758;9.158;2023-05-31T01:53:39;19.40;97.10
2212;DHT22;48849;48.758;9.158;2023-05-31T01:56:07;19.40;97.20
2212;DHT22;48849;48.758;9.158;2023-05-31T01:58:36;19.40;97.30
2212;DHT22;48849;48.758;9.158;2023-05-31T02:01:08;19.40;97.70
2212;DHT22;48849;48.758;9.158;2023-05-31T02:03:38;19.30;97.30
2212;DHT22;48849;48.758;9.158;2023-05-31T02:06:05;19.20;97.40
2212;DHT22;48849;48.758;9.158;2023-05-31T02:08:32;19.20;97.30
2212;DHT22;48849;48.758;9.158;2023-05-31T02:11:05;19.20;97.60
2212;DHT22;48849;48.758;9.158;2023-05-31T02:13:33;19.20;97.30
2212;DHT22;48849;48.758;9.158;2023-05-31T02:16:01;19.10;97.20
2212;DHT22;48849;48.758;9.158;2023-05-31T02:18:31;19.10;97.40
2212;DHT22;48849;48.758;9.158;2023-05-31T02:20:59;19.10;97.50
2212;DHT22;48849;48.758;9.158;2023-05-31T02:23:27;19.00;97.50
2212;DHT22;48849;48.758;9.158;2023-05-31T02:25:54;19.00;97.50
2212;DHT22;48849;48.758;9.158;2023-05-31T02:28:21;19.00;97.50
2212;DHT22;48849;48.758;9.158;2023-05-31T02:30:55;18.90;97.60
2212;DHT22;48849;48.758;9.158;2023-05-31T02:33:22;18.90;97.50
2212;DHT22;48849;48.758;9.158;2023-05-31T02:35:49;18.80;97.50
2212;DHT22;48849;48.758;9.158;2023-05-31T02:38:18;18.80;97.80
2212;DHT22;48849;48.758;9.158;2023-05-31T02:40:45;18.80;97.90
2212;DHT22;48849;48.758;9.158;2023-05-31T02:43:14;18.80;98.20
2212;DHT22;48849;48.758;9.158;2023-05-31T02:45:45;18.70;98.40
2212;DHT22;48849;48.758;9.158;2023-05-31T02:48:12;18.70;98.40
2212;DHT22;48849;48.758;9.158;2023-05-31T02:50:39;18.70;98.60
2212;DHT22;48849;48.758;9.158;2023-05-31T02:53:06;18.70;98.60
2212;DHT22;48849;48.758;9.158;2023-05-31T02:55:42;18.60;98.70
2212;DHT22;48849;48.758;9.158;2023-05-31T02:58:10;18.60;98.90
2212;DHT22;48849;48.758;9.158;2023-05-31T03:00:43;18.60;99.00
2212;DHT22;48849;48.758;9.158;2023-05-31T03:03:16;18.50;99.20
2212;DHT22;48849;48.758;9.158;2023-05-31T03:05:44;18.50;99.30
2212;DHT22;48849;48.758;9.158;2023-05-31T03:08:11;18.50;99.30
2212;DHT22;48849;48.758;9.158;2023-05-31T03:10:39;18.50;99.30
2212;DHT22;48849;48.758;9.158;2023-05-31T03:13:06;18.50;99.40
2212;DHT22;48849;48.758;9.158;2023-05-31T03:15:33;18.50;99.70
2212;DHT22;48849;48.758;9.158;2023-05-31T03:18:01;18.40;99.60
2212;DHT22;48849;48.758;9.158;2023-05-31T03:20:29;18.40;99.60
2212;DHT22;48849;48.758;9.158;2023-05-31T03:22:56;18.50;99.80
2212;DHT22;48849;48.758;9.158;2023-05-31T03:25:23;18.30;99.70
2212;DHT22;48849;48.758;9.158;2023-05-31T03:27:51;18.30;99.80
2212;DHT22;48849;48.758;9.158;2023-05-31T03:30:19;18.30;99.90
2212;DHT22;48849;48.758;9.158;2023-05-31T03:32:46;18.30;99.90
2212;DHT22;48849;48.758;9.158;2023-05-31T03:35:18;18.30;99.90
2212;DHT22;48849;48.758;9.158;2023-05-31T03:38:05;18.30;99.90
2212;DHT22;48849;48.758;9.158;2023-05-31T03:40:43;18.20;99.90
2212;DHT22;48849;48.758;9.158;2023-05-31T03:43:20;18.20;99.90
2212;DHT22;48849;48.758;9.158;2023-05-31T03:45:57;18.20;99.90
2212;DHT22;48849;48.758;9.158;2023-05-31T03:48:36;18.10;99.90
2212;DHT22;48849;48.758;9.158;2023-05-31T03:51:19;18.10;99.90
2212;DHT22;48849;48.758;9.158;2023-05-31T03:53:55;18.10;99.90
2212;DHT22;48849;48.758;9.158;2023-05-31T03:56:23;18.10;99.90
2212;DHT22;48849;48.758;9.158;2023-05-31T03:59:24;18.00;99.90
2212;DHT22;48849;48.758;9.158;2023-05-31T04:02:17;18.00;99.90
2212;DHT22;48849;48.758;9.158;2023-05-31T04:04:57;18.00;99.90
2212;DHT22;48849;48.758;9.158;2023-05-31T04:07:33;17.90;99.90
2212;DHT22;48849;48.758;9.158;2023-05-31T04:10:14;18.00;99.90
2212;DHT22;48849;48.758;9.158;2023-05-31T04:12:41;18.00;99.90
2212;DHT22;48849;48.758;9.158;2023-05-31T04:15:12;18.10;99.90
2212;DHT22;48849;48.758;9.158;2023-05-31T04:17:39;18.10;99.90
2212;DHT22;48849;48.758;9.158;2023-05-31T04:20:07;18.00;99.90
2212;DHT22;48849;48.758;9.158;2023-05-31T04:22:44;18.00;99.90
2212;DHT22;48849;48.758;9.158;2023-05-31T04:25:20;18.00;99.90
2212;DHT22;48849;48.758;9.158;2023-05-31T04:27:53;18.00;99.90
2212;DHT22;48849;48.758;9.158;2023-05-31T04:30:25;18.00;99.90
2212;DHT22;48849;48.758;9.158;2023-05-31T04:32:53;18.00;99.90
2212;DHT22;48849;48.758;9.158;2023-05-31T04:35:31;18.00;99.90
2212;DHT22;48849;48.758;9.158;2023-05-31T04:38:07;18.10;99.90
2212;DHT22;48849;48.758;9.158;2023-05-31T04:40:37;18.00;99.90
2212;DHT22;48849;48.758;9.158;2023-05-31T04:43:29;18.00;99.90
2212;DHT22;48849;48.758;9.158;2023-05-31T04:46:04;18.10;99.90
2212;DHT22;48849;48.758;9.158;2023-05-31T04:48:42;18.00;99.90
2212;DHT22;48849;48.758;9.158;2023-05-31T04:51:18;18.00;99.90
2212;DHT22;48849;48.758;9.158;2023-05-31T04:53:47;18.10;99.90
2212;DHT22;48849;48.758;9.158;2023-05-31T04:56:20;18.10;99.90
2212;DHT22;48849;48.758;9.158;2023-05-31T04:58:47;18.10;99.90
2212;DHT22;48849;48.758;9.158;2023-05-31T05:01:23;18.20;99.90
2212;DHT22;48849;48.758;9.158;2023-05-31T05:03:57;18.20;99.90
2212;DHT22;48849;48.758;9.158;2023-05-31T05:06:37;18.10;99.90
2212;DHT22;48849;48.758;9.158;2023-05-31T05:09:22;18.20;99.90
2212;DHT22;48849;48.758;9.158;2023-05-31T05:12:01;18.20;99.90
2212;DHT22;48849;48.758;9.158;2023-05-31T05:14:28;18.20;99.90
2212;DHT22;48849;48.758;9.158;2023-05-31T05:16:57;18.30;99.90
2212;DHT22;48849;48.758;9.158;2023-05-31T05:19:24;18.30;99.90
2212;DHT22;48849;48.758;9.158;2023-05-31T05:21:51;18.30;99.90
2212;DHT22;48849;48.758;9.158;2023-05-31T05:24:22;18.40;99.90
2212;DHT22;48849;48.758;9.158;2023-05-31T05:26:55;18.40;99.90
2212;DHT22;48849;48.758;9.158;2023-05-31T05:29:29;18.50;99.90
2212;DHT22;48849;48.758;9.158;2023-05-31T05:31:57;18.50;99.90
2212;DHT22;48849;48.758;9.158;2023-05-31T05:34:25;18.50;99.80
2212;DHT22;48849;48.758;9.158;2023-05-31T05:36:56;18.60;99.80
2212;DHT22;48849;48.758;9.158;2023-05-31T05:39:23;18.60;99.90
2212;DHT22;48849;48.758;9.158;2023-05-31T05:41:50;18.60;99.90
2212;DHT22;48849;48.758;9.158;2023-05-31T05:44:18;18.70;99.80
2212;DHT22;48849;48.758;9.158;2023-05-31T05:46:45;18.70;99.60
2212;DHT22;48849;48.758;9.158;2023-05-31T05:49:13;18.70;99.60
2212;DHT22;48849;48.758;9.158;2023-05-31T05:51:40;18.80;99.50
2212;DHT22;48849;48.758;9.158;2023-05-31T05:54:07;18.80;99.20
2212;DHT22;48849;48.758;9.158;2023-05-31T05:56:34;18.80;99.30
2212;DHT22;48849;48.758;9.158;2023-05-31T05:59:01;18.90;99.20
2212;DHT22;48849;48.758;9.158;2023-05-31T06:01:37;18.90;99.10
2212;DHT22;48849;48.758;9.158;2023-05-31T06:04:20;18.90;99.40
2212;DHT22;48849;48.758;9.158;2023-05-31T06:06:52;19.00;99.30
2212;DHT22;48849;48.758;9.158;2023-05-31T06:09:37;19.00;99.40
2212;DHT22;48849;48.758;9.158;2023-05-31T06:12:07;19.00;99.40
2212;DHT22;48849;48.758;9.158;2023-05-31T06:14:54;19.00;99.00
2212;DHT22;48849;48.758;9.158;2023-05-31T06:17:30;19.10;99.70
2212;DHT22;48849;48.758;9.158;2023-05-31T06:20:23;19.10;99.90
2212;DHT22;48849;48.758;9.158;2023-05-31T06:22:55;19.10;99.90
2212;DHT22;48849;48.758;9.158;2023-05-31T06:25:36;19.20;99.90
2212;DHT22;48849;48.758;9.158;2023-05-31T06:28:08;19.20;99.90
2212;DHT22;48849;48.758;9.158;2023-05-31T06:30:51;19.10;99.90
2212;DHT22;48849;48.758;9.158;2023-05-31T06:33:22;19.20;99.90
2212;DHT22;48849;48.758;9.158;2023-05-31T06:36:16;19.20;99.90
2212;DHT22;48849;48.758;9.158;2023-05-31T06:39:06;19.30;99.90
2212;DHT22;48849;48.758;9.158;2023-05-31T06:41:47;19.30;99.90
2212;DHT22;48849;48.758;9.158;2023-05-31T06:44:28;19.30;99.90
2212;DHT22;48849;48.758;9.158;2023-05-31T06:47:07;19.40;99.90
2212;DHT22;48849;48.758;9.158;2023-05-31T06:50:04;19.40;99.90
2212;DHT22;48849;48.758;9.158;2023-05-31T06:52:59;19.40;99.90
2212;DHT22;48849;48.758;9.158;2023-05-31T06:55:39;19.50;99.90
2212;DHT22;48849;48.758;9.158;2023-05-31T06:58:18;19.50;99.90
2212;DHT22;48849;48.758;9.158;2023-05-31T07:01:06;19.50;99.90
2212;DHT22;48849;48.758;9.158;2023-05-31T07:03:53;19.60;99.90
2212;DHT22;48849;48.758;9.158;2023-05-31T07:06:40;19.60;99.90
2212;DHT22;48849;48.758;9.158;2023-05-31T07:16:09;19.60;99.90
2212;DHT22;48849;48.758;9.158;2023-05-31T07:18:45;19.60;99.90
2212;DHT22;48849;48.758;9.158;2023-05-31T07:21:30;19.70;99.90
2212;DHT22;48849;48.758;9.158;2023-05-31T07:24:07;19.70;99.90
2212;DHT22;48849;48.758;9.158;2023-05-31T07:31:21;19.70;99.90
2212;DHT22;48849;48.758;9.158;2023-05-31T07:33:18;19.80;99.90
2212;DHT22;48849;48.758;9.158;2023-05-31T07:36:05;19.80;99.90
2212;DHT22;48849;48.758;9.158;2023-05-31T07:38:38;19.80;99.90
2212;DHT22;48849;48.758;9.158;2023-05-31T07:41:08;19.80;99.90
2212;DHT22;48849;48.758;9.158;2023-05-31T07:43:55;19.90;99.90
2212;DHT22;48849;48.758;9.158;2023-05-31T07:50:09;20.00;99.90
2212;DHT22;48849;48.758;9.158;2023-05-31T07:52:36;20.00;99.90
2212;DHT22;48849;48.758;9.158;2023-05-31T07:55:09;20.00;99.90
2212;DHT22;48849;48.758;9.158;2023-05-31T07:57:53;20.10;99.90
2212;DHT22;48849;48.758;9.158;2023-05-31T08:00:41;20.10;99.90
2212;DHT22;48849;48.758;9.158;2023-05-31T08:03:15;20.10;99.90
2212;DHT22;48849;48.758;9.158;2023-05-31T08:06:07;20.20;99.90
2212;DHT22;48849;48.758;9.158;2023-05-31T08:08:42;20.20;99.90
2212;DHT22;48849;48.758;9.158;2023-05-31T08:11:45;20.20;99.90
2212;DHT22;48849;48.758;9.158;2023-05-31T08:14:16;20.30;99.90
2212;DHT22;48849;48.758;9.158;2023-05-31T08:17:00;20.30;99.90
2212;DHT22;48849;48.758;9.158;2023-05-31T08:32:40;20.50;99.90
2212;DHT22;48849;48.758;9.158;2023-05-31T08:38:45;20.60;99.90
2212;DHT22;48849;48.758;9.158;2023-05-31T08:41:21;20.60;99.90
2212;DHT22;48849;48.758;9.158;2023-05-31T08:43:48;20.70;99.90
2212;DHT22;48849;48.758;9.158;2023-05-31T08:49:21;20.80;99.90
2212;DHT22;48849;48.758;9.158;2023-05-31T08:51:55;20.80;99.90
2212;DHT22;48849;48.758;9.158;2023-05-31T08:54:40;20.80;99.90
2212;DHT22;48849;48.758;9.158;2023-05-31T08:57:13;20.90;99.90
2212;DHT22;48849;48.758;9.158;2023-05-31T09:06:19;20.90;99.90
2212;DHT22;48849;48.758;9.158;2023-05-31T09:09:24;21.00;99.90
2212;DHT22;48849;48.758;9.158;2023-05-31T09:19:05;21.20;99.90
2212;DHT22;48849;48.758;9.158;2023-05-31T09:28:32;21.30;99.90
2212;DHT22;48849;48.758;9.158;2023-05-31T09:31:09;21.30;99.90
2212;DHT22;48849;48.758;9.158;2023-05-31T09:40:22;21.40;99.90
2212;DHT22;48849;48.758;9.158;2023-05-31T09:43:07;21.40;99.90
2212;DHT22;48849;48.758;9.158;2023-05-31T10:01:34;21.70;99.90
2212;DHT22;48849;48.758;9.158;2023-05-31T10:04:19;21.80;99.40
2212;DHT22;48849;48.758;9.158;2023-05-31T10:06:51;21.80;99.80
2212;DHT22;48849;48.758;9.158;2023-05-31T10:11:53;21.80;99.90
2212;DHT22;48849;48.758;9.158;2023-05-31T10:14:25;21.90;99.90
2212;DHT22;48849;48.758;9.158;2023-05-31T10:16:59;21.90;99.40
2212;DHT22;48849;48.758;9.158;2023-05-31T10:19:49;22.00;98.90
2212;DHT22;48849;48.758;9.158;2023-05-31T10:26:04;22.10;98.70
2212;DHT22;48849;48.758;9.158;2023-05-31T10:28:05;22.00;98.60
2212;DHT22;48849;48.758;9.158;2023-05-31T10:28:42;22.00;99.30
2212;DHT22;48849;48.758;9.158;2023-05-31T10:31:23;22.10;98.40
2212;DHT22;48849;48.758;9.158;2023-05-31T10:34:13;22.10;99.90
2212;DHT22;48849;48.758;9.158;2023-05-31T10:36:57;22.20;98.60
2212;DHT22;48849;48.758;9.158;2023-05-31T10:39:38;22.20;98.20
2212;DHT22;48849;48.758;9.158;2023-05-31T10:42:20;22.30;98.00
2212;DHT22;48849;48.758;9.158;2023-05-31T10:45:25;22.40;99.70
2212;DHT22;48849;48.758;9.158;2023-05-31T10:48:20;22.40;98.50
2212;DHT22;48849;48.758;9.158;2023-05-31T10:51:09;22.50;97.80
2212;DHT22;48849;48.758;9.158;2023-05-31T10:53:50;22.50;97.90
2212;DHT22;48849;48.758;9.158;2023-05-31T10:56:55;22.60;96.90
2212;DHT22;48849;48.758;9.158;2023-05-31T10:59:23;22.70;98.20
2212;DHT22;48849;48.758;9.158;2023-05-31T11:02:12;22.80;98.10
2212;DHT22;48849;48.758;9.158;2023-05-31T11:04:46;22.90;98.10
2212;DHT22;48849;48.758;9.158;2023-05-31T11:07:43;23.00;97.90
2212;DHT22;48849;48.758;9.158;2023-05-31T11:10:32;23.10;97.60
2212;DHT22;48849;48.758;9.158;2023-05-31T11:13:16;23.20;97.50
2212;DHT22;48849;48.758;9.158;2023-05-31T11:16:12;23.30;97.70
2212;DHT22;48849;48.758;9.158;2023-05-31T11:19:05;23.50;97.80
2212;DHT22;48849;48.758;9.158;2023-05-31T11:21:49;23.60;97.70
2212;DHT22;48849;48.758;9.158;2023-05-31T11:24:35;23.70;97.80
2212;DHT22;48849;48.758;9.158;2023-05-31T11:27:13;23.80;97.20
2212;DHT22;48849;48.758;9.158;2023-05-31T11:30:07;23.90;96.70
2212;DHT22;48849;48.758;9.158;2023-05-31T11:33:12;24.00;96.90
2212;DHT22;48849;48.758;9.158;2023-05-31T11:35:47;24.10;97.40
2212;DHT22;48849;48.758;9.158;2023-05-31T11:38:45;24.20;97.30
2212;DHT22;48849;48.758;9.158;2023-05-31T11:41:46;24.30;97.20
2212;DHT22;48849;48.758;9.158;2023-05-31T11:44:24;24.40;96.30
2212;DHT22;48849;48.758;9.158;2023-05-31T11:47:16;24.50;96.40
2212;DHT22;48849;48.758;9.158;2023-05-31T11:49:52;24.50;95.80
2212;DHT22;48849;48.758;9.158;2023-05-31T11:52:21;24.60;96.00
2212;DHT22;48849;48.758;9.158;2023-05-31T11:54:54;24.80;95.90
2212;DHT22;48849;48.758;9.158;2023-05-31T11:57:43;24.80;96.00
2212;DHT22;48849;48.758;9.158;2023-05-31T12:00:18;24.90;95.60
2212;DHT22;48849;48.758;9.158;2023-05-31T12:02:54;25.00;95.60
2212;DHT22;48849;48.758;9.158;2023-05-31T12:05:24;25.00;95.30
2212;DHT22;48849;48.758;9.158;2023-05-31T12:07:56;25.10;95.90
2212;DHT22;48849;48.758;9.158;2023-05-31T12:20:11;25.60;96.40
2212;DHT22;48849;48.758;9.158;2023-05-31T12:22:39;25.60;95.00
2212;DHT22;48849;48.758;9.158;2023-05-31T12:39:10;26.30;94.70
2212;DHT22;48849;48.758;9.158;2023-05-31T12:45:03;26.50;94.50
2212;DHT22;48849;48.758;9.158;2023-05-31T12:48:07;26.50;93.30
2212;DHT22;48849;48.758;9.158;2023-05-31T13:11:23;27.10;92.50
2212;DHT22;48849;48.758;9.158;2023-05-31T13:14:06;27.10;90.40
2212;DHT22;48849;48.758;9.158;2023-05-31T13:16:42;27.20;90.70
2212;DHT22;48849;48.758;9.158;2023-05-31T13:56:10;27.40;93.90
2212;DHT22;48849;48.758;9.158;2023-05-31T14:00:02;29.10;93.70
2212;DHT22;48849;48.758;9.158;2023-05-31T14:02:09;31.70;91.30
2212;DHT22;48849;48.758;9.158;2023-05-31T14:05:12;34.20;87.20
2212;DHT22;48849;48.758;9.158;2023-05-31T14:08:16;36.20;78.70
2212;DHT22;48849;48.758;9.158;2023-05-31T14:17:43;32.30;77.70
2212;DHT22;48849;48.758;9.158;2023-05-31T14:23:41;29.70;78.70
2212;DHT22;48849;48.758;9.158;2023-05-31T14:36:34;26.70;83.70
2212;DHT22;48849;48.758;9.158;2023-05-31T14:39:29;26.30;85.80
2212;DHT22;48849;48.758;9.158;2023-05-31T14:42:15;26.10;86.80
2212;DHT22;48849;48.758;9.158;2023-05-31T14:45:38;25.80;89.20
2212;DHT22;48849;48.758;9.158;2023-05-31T14:48:13;25.60;86.90
2212;DHT22;48849;48.758;9.158;2023-05-31T14:53:55;25.30;91.70
2212;DHT22;48849;48.758;9.158;2023-05-31T14:56:34;25.10;90.60
2212;DHT22;48849;48.758;9.158;2023-05-31T15:14:40;24.50;90.90
2212;DHT22;48849;48.758;9.158;2023-05-31T15:17:15;24.40;91.20
2212;DHT22;48849;48.758;9.158;2023-05-31T15:19:50;24.40;91.10
2212;DHT22;48849;48.758;9.158;2023-05-31T15:22:44;24.30;91.10
2212;DHT22;48849;48.758;9.158;2023-05-31T15:25:42;24.30;92.00
2212;DHT22;48849;48.758;9.158;2023-05-31T15:28:50;24.20;91.50
2212;DHT22;48849;48.758;9.158;2023-05-31T15:45:38;24.00;91.90
2212;DHT22;48849;48.758;9.158;2023-05-31T15:48:38;24.00;92.20
2212;DHT22;48849;48.758;9.158;2023-05-31T15:51:53;23.90;91.70
2212;DHT22;48849;48.758;9.158;2023-05-31T15:57:28;23.90;91.00
2212;DHT22;48849;48.758;9.158;2023-05-31T16:15:19;23.80;92.50
2212;DHT22;48849;48.758;9.158;2023-05-31T16:18:20;23.80;92.20
2212;DHT22;48849;48.758;9.158;2023-05-31T16:24:26;23.70;92.10
2212;DHT22;48849;48.758;9.158;2023-05-31T16:27:22;23.70;92.10
2212;DHT22;48849;48.758;9.158;2023-05-31T16:36:59;23.70;90.90
2212;DHT22;48849;48.758;9.158;2023-05-31T16:40:01;23.60;90.50
2212;DHT22;48849;48.758;9.158;2023-05-31T16:42:44;23.60;92.70
2212;DHT22;48849;48.758;9.158;2023-05-31T16:45:41;23.60;93.30
2212;DHT22;48849;48.758;9.158;2023-05-31T16:48:28;23.60;94.20
2212;DHT22;48849;48.758;9.158;2023-05-31T16:51:30;23.70;94.00
2212;DHT22;48849;48.758;9.158;2023-05-31T16:54:42;23.80;94.20
2212;DHT22;48849;48.758;9.158;2023-05-31T16:57:39;23.70;94.90
2212;DHT22;48849;48.758;9.158;2023-05-31T17:00:33;23.70;94.80
2212;DHT22;48849;48.758;9.158;2023-05-31T17:20:02;23.40;94.50
2212;DHT22;48849;48.758;9.158;2023-05-31T17:26:05;23.30;95.00
2212;DHT22;48849;48.758;9.158;2023-05-31T17:28:32;23.30;95.20
2212;DHT22;48849;48.758;9.158;2023-05-31T17:30:59;23.30;94.20
2212;DHT22;48849;48.758;9.158;2023-05-31T17:33:26;23.30;96.70
2212;DHT22;48849;48.758;9.158;2023-05-31T17:35:54;23.40;96.80
2212;DHT22;48849;48.758;9.158;2023-05-31T17:38:21;23.40;96.70
2212;DHT22;48849;48.758;9.158;2023-05-31T17:40:48;23.40;97.00
2212;DHT22;48849;48.758;9.158;2023-05-31T17:43:14;23.20;97.10
2212;DHT22;48849;48.758;9.158;2023-05-31T17:45:41;23.20;97.80
2212;DHT22;48849;48.758;9.158;2023-05-31T17:48:08;23.40;98.90
2212;DHT22;48849;48.758;9.158;2023-05-31T17:50:35;23.20;99.40
2212;DHT22;48849;48.758;9.158;2023-05-31T17:53:03;23.20;99.30
2212;DHT22;48849;48.758;9.158;2023-05-31T17:55:30;23.50;98.90
2212;DHT22;48849;48.758;9.158;2023-05-31T17:57:59;23.10;97.20
2212;DHT22;48849;48.758;9.158;2023-05-31T18:00:25;23.00;97.60
2212;DHT22;48849;48.758;9.158;2023-05-31T18:02:52;23.10;97.10
2212;DHT22;48849;48.758;9.158;2023-05-31T18:05:19;23.00;97.70
2212;DHT22;48849;48.758;9.158;2023-05-31T18:07:47;23.00;97.30
2212;DHT22;48849;48.758;9.158;2023-05-31T18:10:17;23.10;98.00
2212;DHT22;48849;48.758;9.158;2023-05-31T18:12:44;23.00;98.40
2212;DHT22;48849;48.758;9.158;2023-05-31T18:15:10;23.00;97.60
2212;DHT22;48849;48.758;9.158;2023-05-31T18:17:37;23.00;97.70
2212;DHT22;48849;48.758;9.158;2023-05-31T18:20:05;23.00;97.20
2212;DHT22;48849;48.758;9.158;2023-05-31T18:22:32;23.00;97.20
2212;DHT22;48849;48.758;9.158;2023-05-31T18:25:01;23.00;97.70
2212;DHT22;48849;48.758;9.158;2023-05-31T18:27:29;23.00;98.10
2212;DHT22;48849;48.758;9.158;2023-05-31T18:29:57;23.20;98.40
2212;DHT22;48849;48.758;9.158;2023-05-31T18:32:24;23.00;98.20
2212;DHT22;48849;48.758;9.158;2023-05-31T18:34:50;23.10;97.80
2212;DHT22;48849;48.758;9.158;2023-05-31T18:37:17;23.00;98.10
2212;DHT22;48849;48.758;9.158;2023-05-31T18:39:47;22.90;98.40
2212;DHT22;48849;48.758;9.158;2023-05-31T18:42:14;23.00;97.70
2212;DHT22;48849;48.758;9.158;2023-05-31T18:44:42;22.90;98.40
2212;DHT22;48849;48.758;9.158;2023-05-31T18:47:11;22.90;97.90
2212;DHT22;48849;48.758;9.158;2023-05-31T18:49:37;22.80;98.30
2212;DHT22;48849;48.758;9.158;2023-05-31T18:52:05;22.80;98.30
2212;DHT22;48849;48.758;9.158;2023-05-31T18:54:31;22.80;98.00
2212;DHT22;48849;48.758;9.158;2023-05-31T18:56:58;22.80;98.30
2212;DHT22;48849;48.758;9.158;2023-05-31T18:59:27;22.70;98.00
2212;DHT22;48849;48.758;9.158;2023-05-31T19:01:57;22.70;98.10
2212;DHT22;48849;48.758;9.158;2023-05-31T19:04:24;22.70;98.00
2212;DHT22;48849;48.758;9.158;2023-05-31T19:06:52;22.80;98.00
2212;DHT22;48849;48.758;9.158;2023-05-31T19:09:19;22.70;97.90
2212;DHT22;48849;48.758;9.158;2023-05-31T19:11:46;22.70;97.60
2212;DHT22;48849;48.758;9.158;2023-05-31T19:14:14;22.70;97.70
2212;DHT22;48849;48.758;9.158;2023-05-31T19:16:41;22.60;97.70
2212;DHT22;48849;48.758;9.158;2023-05-31T19:19:09;22.60;97.70
2212;DHT22;48849;48.758;9.158;2023-05-31T19:21:36;22.60;97.30
2212;DHT22;48849;48.758;9.158;2023-05-31T19:24:03;22.60;97.60
2212;DHT22;48849;48.758;9.158;2023-05-31T19:26:31;22.60;97.50
2212;DHT22;48849;48.758;9.158;2023-05-31T19:28:57;22.60;97.50
2212;DHT22;48849;48.758;9.158;2023-05-31T19:31:24;22.40;97.40
2212;DHT22;48849;48.758;9.158;2023-05-31T19:33:55;22.60;97.30
2212;DHT22;48849;48.758;9.158;2023-05-31T19:36:24;22.70;97.30
2212;DHT22;48849;48.758;9.158;2023-05-31T19:38:51;22.70;97.10
2212;DHT22;48849;48.758;9.158;2023-05-31T19:41:18;22.60;96.90
2212;DHT22;48849;48.758;9.158;2023-05-31T19:43:45;22.50;97.00
2212;DHT22;48849;48.758;9.158;2023-05-31T19:46:19;22.70;97.20
2212;DHT22;48849;48.758;9.158;2023-05-31T19:48:58;22.50;97.20
2212;DHT22;48849;48.758;9.158;2023-05-31T19:51:26;22.40;97.10
2212;DHT22;48849;48.758;9.158;2023-05-31T19:53:53;22.30;97.00
2212;DHT22;48849;48.758;9.158;2023-05-31T19:56:20;22.30;97.20
2212;DHT22;48849;48.758;9.158;2023-05-31T19:58:47;22.60;97.40
2212;DHT22;48849;48.758;9.158;2023-05-31T20:01:14;22.50;97.30
2212;DHT22;48849;48.758;9.158;2023-05-31T20:03:41;22.20;97.30
2212;DHT22;48849;48.758;9.158;2023-05-31T20:06:07;22.40;97.60
2212;DHT22;48849;48.758;9.158;2023-05-31T20:08:35;22.10;97.50
2212;DHT22;48849;48.758;9.158;2023-05-31T20:11:02;22.10;97.70
2212;DHT22;48849;48.758;9.158;2023-05-31T20:13:29;22.30;97.90
2212;DHT22;48849;48.758;9.158;2023-05-31T20:15:55;22.00;97.90
2212;DHT22;48849;48.758;9.158;2023-05-31T20:18:22;22.00;98.00
2212;DHT22;48849;48.758;9.158;2023-05-31T20:20:49;22.00;97.70
2212;DHT22;48849;48.758;9.158;2023-05-31T20:23:16;21.90;97.90
2212;DHT22;48849;48.758;9.158;2023-05-31T20:25:45;21.80;97.90
2212;DHT22;48849;48.758;9.158;2023-05-31T20:28:12;21.80;98.20
2212;DHT22;48849;48.758;9.158;2023-05-31T20:30:41;21.70;98.30
2212;DHT22;48849;48.758;9.158;2023-05-31T20:33:08;21.80;98.50
2212;DHT22;48849;48.758;9.158;2023-05-31T20:35:35;21.70;98.40
2212;DHT22;48849;48.758;9.158;2023-05-31T20:38:02;21.60;98.30
2212;DHT22;48849;48.758;9.158;2023-05-31T20:40:29;21.60;98.40
2212;DHT22;48849;48.758;9.158;2023-05-31T20:42:58;21.40;98.40
2212;DHT22;48849;48.758;9.158;2023-05-31T20:45:25;22.10;98.90
2212;DHT22;48849;48.758;9.158;2023-05-31T20:47:51;21.40;98.60
2212;DHT22;48849;48.758;9.158;2023-05-31T20:50:20;21.40;98.60
2212;DHT22;48849;48.758;9.158;2023-05-31T20:52:47;21.70;98.60
2212;DHT22;48849;48.758;9.158;2023-05-31T20:55:14;21.60;98.70
2212;DHT22;48849;48.758;9.158;2023-05-31T20:57:41;21.30;98.60
2212;DHT22;48849;48.758;9.158;2023-05-31T21:00:10;21.40;98.80
2212;DHT22;48849;48.758;9.158;2023-05-31T21:02:37;21.10;98.60